createdAt,value
2023-05-11T00:01:08.804Z,13.10
2023-05-11T00:06:10.655Z,13.00
2023-05-11T00:11:12.527Z,12.90
2023-05-11T00:16:14.895Z,12.90
2023-05-11T00:21:16.896Z,12.80
2023-05-11T00:26:18.709Z,12.80
2023-05-11T00:31:20.629Z,12.80
2023-05-11T00:36:22.489Z,12.80
2023-05-11T00:41:24.585Z,12.80
2023-05-11T00:46:27.786Z,12.80
2023-05-11T00:51:32.037Z,12.80
2023-05-11T00:56:33.892Z,12.80
2023-05-11T01:01:36.291Z,12.80
2023-05-11T01:07:09.148Z,12.90
2023-05-11T01:12:34.617Z,12.90
2023-05-11T01:18:02.014Z,12.90
2023-05-11T01:23:14.418Z,12.90
2023-05-11T01:28:41.120Z,12.90
2023-05-11T01:33:55.510Z,12.90
2023-05-11T01:39:01.551Z,12.80
2023-05-11T01:44:07.932Z,12.80
2023-05-11T01:49:10.847Z,12.70
2023-05-11T01:54:12.929Z,12.60
2023-05-11T01:59:15.346Z,12.60
2023-05-11T02:04:19.888Z,12.50
2023-05-11T02:09:22.056Z,12.40
2023-05-11T02:14:24.812Z,12.30
2023-05-11T02:19:28.031Z,12.20
2023-05-11T02:24:30.992Z,12.20
2023-05-11T02:29:32.850Z,12.10
2023-05-11T02:34:47.868Z,12.10
2023-05-11T02:39:54.692Z,12.00
2023-05-11T02:45:01.068Z,12.00
2023-05-11T02:50:04.345Z,12.00
2023-05-11T02:55:09.390Z,11.90
2023-05-11T03:00:12.546Z,11.90
2023-05-11T03:05:14.397Z,11.90
2023-05-11T03:10:16.335Z,11.90
2023-05-11T03:15:18.583Z,11.90
2023-05-11T03:20:23.800Z,11.80
2023-05-11T03:25:26.032Z,11.80
2023-05-11T03:30:28.585Z,11.80
2023-05-11T03:35:31.958Z,11.80
2023-05-11T03:40:34.663Z,11.80
2023-05-11T03:45:37.685Z,11.80
2023-05-11T03:50:39.777Z,11.80
2023-05-11T03:55:42.062Z,11.80
2023-05-11T04:00:43.899Z,11.70
2023-05-11T04:05:45.761Z,11.70
2023-05-11T04:10:47.562Z,11.70
2023-05-11T04:15:49.378Z,11.80
2023-05-11T04:20:51.250Z,11.90
2023-05-11T04:25:54.672Z,12.00
2023-05-11T04:30:57.446Z,12.10
2023-05-11T04:35:59.250Z,12.30
2023-05-11T04:41:08.370Z,12.50
2023-05-11T04:46:10.517Z,12.80
2023-05-11T04:51:12.459Z,13.10
2023-05-11T04:56:14.606Z,13.50
2023-05-11T05:01:16.466Z,13.80
2023-05-11T05:06:18.377Z,14.10
2023-05-11T05:11:21.601Z,14.30
2023-05-11T05:16:23.414Z,14.40
2023-05-11T05:21:25.327Z,14.50
2023-05-11T05:26:27.463Z,14.70
2023-05-11T05:31:29.919Z,15.10
2023-05-11T05:36:32.394Z,15.40
2023-05-11T05:41:34.219Z,15.70
2023-05-11T05:46:36.430Z,15.90
2023-05-11T05:51:38.325Z,16.30
2023-05-11T05:56:40.914Z,16.60
2023-05-11T06:01:46.273Z,16.90
2023-05-11T06:06:48.172Z,17.10
2023-05-11T06:11:49.992Z,17.10
2023-05-11T06:16:53.699Z,16.90
2023-05-11T06:21:55.759Z,16.80
2023-05-11T06:26:57.682Z,16.60
2023-05-11T06:31:59.570Z,16.70
2023-05-11T06:37:01.400Z,16.60
2023-05-11T06:42:06.590Z,16.50
2023-05-11T06:47:09.019Z,16.50
2023-05-11T06:52:10.937Z,16.40
2023-05-11T06:57:14.541Z,16.60
2023-05-11T07:02:16.623Z,16.70
2023-05-11T07:07:18.477Z,16.80
2023-05-11T07:12:20.363Z,17.00
2023-05-11T07:17:22.364Z,17.30
2023-05-11T07:22:24.322Z,17.80
2023-05-11T07:27:26.290Z,18.00
2023-05-11T07:32:28.233Z,18.10
2023-05-11T07:37:30.103Z,18.30
2023-05-11T07:42:31.967Z,18.40
2023-05-11T07:47:36.631Z,18.70
2023-05-11T07:52:38.767Z,18.80
2023-05-11T07:57:41.015Z,18.60
2023-05-11T08:02:42.957Z,19.00
2023-05-11T08:07:44.954Z,19.10
2023-05-11T08:12:47.020Z,18.90
2023-05-11T08:17:48.949Z,18.80
2023-05-11T08:22:50.769Z,19.20
2023-05-11T08:27:52.613Z,19.60
2023-05-11T08:32:58.860Z,20.20
2023-05-11T08:38:01.326Z,20.50
2023-05-11T08:43:05.520Z,20.50
2023-05-11T08:48:07.446Z,20.40
2023-05-11T08:53:09.278Z,20.30
2023-05-11T08:58:14.447Z,20.80
2023-05-11T09:10:11.498Z,20.70
2023-05-11T09:15:14.820Z,20.50
2023-05-11T09:20:26.902Z,20.70
2023-05-11T09:25:35.287Z,20.70
2023-05-11T09:30:37.641Z,20.60
2023-05-11T09:35:40.259Z,20.40
2023-05-11T09:40:51.677Z,20.30
2023-05-11T09:45:55.606Z,20.30
2023-05-11T09:51:07.653Z,20.40
2023-05-11T09:56:10.233Z,20.10
2023-05-11T10:01:12.126Z,20.30
2023-05-11T10:06:14.025Z,20.60
2023-05-11T10:11:15.907Z,20.60
2023-05-11T10:16:19.396Z,20.70
2023-05-11T10:21:21.489Z,21.10
2023-05-11T10:26:24.430Z,20.90
2023-05-11T10:31:26.595Z,20.60
2023-05-11T10:36:29.214Z,20.30
2023-05-11T10:41:33.862Z,20.10
2023-05-11T10:47:24.348Z,19.90
2023-05-11T10:52:34.339Z,20.10
2023-05-11T10:57:53.597Z,20.50
2023-05-11T11:02:57.277Z,20.60
2023-05-11T11:08:00.361Z,20.60
2023-05-11T11:13:06.312Z,20.70
2023-05-11T11:18:23.701Z,21.10
2023-05-11T11:23:44.794Z,21.10
2023-05-11T11:29:00.575Z,20.90
2023-05-11T11:34:39.580Z,20.90
2023-05-11T11:39:41.341Z,20.80
2023-05-11T11:44:44.337Z,20.80
2023-05-11T11:49:55.420Z,20.80
2023-05-11T11:55:01.457Z,20.50
2023-05-11T12:00:07.120Z,20.80
2023-05-11T12:05:18.416Z,21.00
2023-05-11T12:10:23.667Z,21.00
2023-05-11T12:15:29.906Z,20.80
2023-05-11T12:20:32.845Z,20.60
2023-05-11T12:25:34.755Z,20.60
2023-05-11T12:30:36.563Z,20.60
2023-05-11T12:35:42.511Z,20.50
2023-05-11T12:40:52.936Z,20.30
2023-05-11T12:45:54.836Z,20.10
2023-05-11T12:50:56.916Z,20.20
2023-05-11T12:55:59.536Z,20.30
2023-05-11T13:01:01.604Z,20.50
2023-05-11T13:06:13.435Z,20.90
2023-05-11T13:11:26.839Z,21.00
2023-05-11T13:16:33.467Z,21.20
2023-05-11T13:21:35.456Z,21.10
2023-05-11T13:26:37.292Z,21.20
2023-05-11T13:31:53.073Z,21.30
2023-05-11T13:36:54.970Z,21.30
2023-05-11T13:41:56.816Z,21.20
2023-05-11T13:46:58.691Z,21.20
2023-05-11T13:52:00.585Z,21.40
2023-05-11T13:57:02.720Z,21.30
2023-05-11T14:02:04.707Z,21.10
2023-05-11T14:07:06.773Z,21.30
2023-05-11T14:12:08.588Z,21.20
2023-05-11T14:17:11.587Z,21.00
2023-05-11T14:22:13.451Z,20.80
2023-05-11T14:27:15.342Z,20.60
2023-05-11T14:32:18.929Z,20.80
2023-05-11T14:37:20.816Z,20.80
2023-05-11T14:42:22.887Z,20.60
2023-05-11T14:47:25.049Z,20.50
2023-05-11T14:52:26.947Z,20.40
2023-05-11T14:57:29.106Z,20.30
2023-05-11T15:02:30.983Z,20.30
2023-05-11T15:07:33.906Z,20.20
2023-05-11T15:12:35.792Z,20.10
2023-05-11T15:17:37.671Z,20.00
2023-05-11T15:22:39.534Z,20.00
2023-05-11T15:27:41.376Z,19.90
2023-05-11T15:32:43.582Z,19.80
2023-05-11T15:37:45.530Z,19.70
2023-05-11T15:42:47.510Z,19.60
2023-05-11T15:47:49.324Z,19.50
2023-05-11T15:52:51.185Z,19.40
2023-05-11T15:57:53.102Z,19.50
2023-05-11T16:02:55.003Z,19.30
2023-05-11T16:07:56.987Z,19.30
2023-05-11T16:12:59.147Z,19.20
2023-05-11T16:18:03.115Z,19.10
2023-05-11T16:23:07.053Z,19.00
2023-05-11T16:28:09.085Z,19.00
2023-05-11T16:33:10.918Z,19.00
2023-05-11T16:38:17.697Z,18.90
2023-05-11T16:43:19.526Z,18.80
2023-05-11T16:48:28.486Z,18.70
2023-05-11T16:53:31.736Z,18.60
2023-05-11T16:58:33.664Z,18.50
2023-05-11T17:03:35.740Z,18.40
2023-05-11T17:08:37.998Z,18.40
2023-05-11T17:13:39.904Z,18.30
2023-05-11T17:18:41.867Z,18.30
2023-05-11T17:23:45.095Z,18.20
2023-05-11T17:28:47.307Z,18.20
2023-05-11T17:33:49.702Z,18.10
2023-05-11T17:38:53.562Z,18.10
2023-05-11T17:43:55.677Z,18.00
2023-05-11T17:48:57.769Z,18.00
2023-05-11T17:53:59.710Z,17.80
2023-05-11T17:59:01.589Z,17.80
2023-05-11T18:04:04.708Z,17.70
2023-05-11T18:09:06.928Z,17.70
2023-05-11T18:14:10.827Z,17.60
2023-05-11T18:19:12.731Z,17.50
2023-05-11T18:24:15.247Z,17.40
2023-05-11T18:29:20.082Z,17.40
2023-05-11T18:34:22.288Z,17.30
2023-05-11T18:39:24.236Z,17.20
2023-05-11T18:44:26.199Z,17.20
2023-05-11T18:49:28.160Z,17.20
2023-05-11T18:54:29.977Z,17.10
2023-05-11T18:59:31.813Z,17.00
2023-05-11T19:04:33.908Z,16.80
2023-05-11T19:09:36.163Z,16.60
2023-05-11T19:14:38.064Z,16.20
2023-05-11T19:19:39.973Z,16.00
2023-05-11T19:24:44.094Z,15.70
2023-05-11T19:29:49.260Z,15.50
2023-05-11T19:34:51.900Z,15.30
2023-05-11T19:39:55.050Z,15.10
2023-05-11T19:45:01.412Z,15.00
2023-05-11T19:50:14.582Z,14.90
2023-05-11T19:55:16.492Z,14.70
2023-05-11T20:00:18.912Z,14.60
2023-05-11T20:05:21.021Z,14.50
2023-05-11T20:10:23.071Z,14.40
2023-05-11T20:15:25.416Z,14.50
2023-05-11T20:20:27.325Z,14.30
2023-05-11T20:25:29.181Z,14.20
2023-05-11T20:30:31.051Z,14.10
2023-05-11T20:35:34.214Z,14.00
2023-05-11T20:40:36.474Z,14.00
2023-05-11T20:45:38.366Z,13.90
2023-05-11T20:50:40.301Z,13.90
2023-05-11T20:55:42.130Z,13.80
2023-05-11T21:00:44.251Z,13.80
2023-05-11T21:05:46.142Z,13.70
2023-05-11T21:10:48.825Z,13.60
2023-05-11T21:15:50.704Z,13.60
2023-05-11T21:20:52.521Z,13.50
2023-05-11T21:25:55.379Z,13.50
2023-05-11T21:30:58.031Z,13.50
2023-05-11T21:35:59.930Z,13.50
2023-05-11T21:41:03.350Z,13.50
2023-05-11T21:46:05.423Z,13.40
2023-05-11T21:51:08.220Z,13.50
2023-05-11T21:56:10.080Z,13.50
2023-05-11T22:01:12.253Z,13.50
2023-05-11T22:06:14.088Z,13.40
2023-05-11T22:11:16.097Z,13.40
2023-05-11T22:16:18.954Z,13.20
2023-05-11T22:21:20.826Z,13.10
2023-05-11T22:26:23.026Z,13.10
2023-05-11T22:31:26.720Z,13.10
2023-05-11T22:36:28.869Z,13.00
2023-05-11T22:41:30.752Z,12.90
2023-05-11T22:46:32.879Z,12.90
2023-05-11T22:51:35.032Z,12.90
2023-05-11T22:56:38.089Z,12.90
2023-05-11T23:01:40.013Z,12.90
2023-05-11T23:06:41.971Z,12.90
2023-05-11T23:11:44.280Z,12.90
2023-05-11T23:16:46.162Z,13.00
2023-05-11T23:21:48.097Z,12.90
2023-05-11T23:26:49.939Z,13.00
2023-05-11T23:31:51.912Z,13.00
2023-05-11T23:36:53.802Z,12.90
2023-05-11T23:41:55.713Z,12.90
2023-05-11T23:46:57.569Z,12.80
2023-05-11T23:51:59.660Z,12.80
2023-05-11T23:57:02.089Z,12.80
